Omega, Oklahoma
Current Conditions -  °F | °C
As of 12:55 PM on Thursday 23 Oct 2014 (Local Time) from KJWG Reporting Station
Scattered Clouds Scattered Clouds  
Wind Chill: 73°   Ceiling: Unl
Heat Index: 73°   Visibility: 10mi
Dew Point: 64°   Wind: 9mph
Humidity: 73%   Direction: 230°SW
Pressure: 30.11"   Gusts: NA
Location:  35.87°N, 98.2°W
Report Text: KJWG 231755Z AUTO 23008KT 10SM SCT024 23/18 A3011 RMK AO2 T02260175 10226 20163
Loading
Personal Weather Stations






























Interactive Weather Map
Tropical Storm Tracking
New forecast layout! Learn more

10-Day Weather Forecast

Advertisements
Track Severe Weather on mobile